Time;durP1;ratioP1;P1;durP2;ratioP2;P2;SDS_P1;SDS_P2;PMS_P1;PMS_P2;Temp;Humidity;BMP_temperature;BMP_pressure;BME280_temperature;BME280_humidity;BME280_pressure;Samples;Min_cycle;Max_cycle;Signal;HPM_P1;HPM_P2
2021/10/19 00:00:31;;;;;;;;;;;;;;;15.10;67.60;99976.91;5031182;28;19922;-74
2021/10/19 00:03:00;;;;;;;;;;;;;;;15.10;67.81;99976.91;5031460;28;19924;-73
2021/10/19 00:05:25;;;;;;;;;;;;;;;15.08;67.67;99985.94;5031449;28;19921;-74
2021/10/19 00:07:50;;;;;;;;;;;;;;;15.05;67.75;99984.31;5032132;28;19926;-72
2021/10/19 00:10:16;;;;;;;;;;;;;;;15.04;68.05;99977.31;5012717;28;19917;-73
2021/10/19 00:12:41;;;;;;;;;;;;;;;14.99;68.73;99982.06;5031679;28;19925;-73
2021/10/19 00:15:09;;;;;;;;;;;;;;;14.91;69.14;99976.38;5030963;28;19917;-74
2021/10/19 00:17:35;;;;;;;;;;;;;;;14.84;69.85;99981.25;5021233;28;19917;-73
2021/10/19 00:20:00;;;;;;;;;;;;;;;14.79;70.17;99981.56;5030339;28;19924;-74
2021/10/19 00:22:25;;;;;;;;;;;;;;;14.71;70.73;99973.19;5031255;28;19917;-74
2021/10/19 00:24:50;;;;;;;;;;;;;;;14.67;71.06;99973.50;5029861;28;19932;-72
2021/10/19 00:27:15;;;;;;;;;;;;;;;14.67;71.56;99974.38;5031292;28;19917;-73
2021/10/19 00:29:41;;;;;;;;;;;;;;;14.64;71.63;99971.03;5031409;28;19952;-73
2021/10/19 00:32:06;;;;;;;;;;;;;;;14.58;71.83;99972.28;5030792;28;19917;-73
2021/10/19 00:34:31;;;;;;;;;;;;;;;14.55;72.02;99969.84;5030448;28;19922;-74
2021/10/19 00:36:57;;;;;;;;;;;;;;;14.55;71.95;99967.19;5013508;28;20432;-74
2021/10/19 00:39:22;;;;;;;;;;;;;;;14.56;72.23;99961.75;5013319;28;19924;-74
2021/10/19 00:41:48;;;;;;;;;;;;;;;14.53;72.34;99956.66;5012768;28;20004;-74
2021/10/19 00:44:13;;;;;;;;;;;;;;;14.50;72.51;99955.97;5034929;28;19925;-74
2021/10/19 00:46:40;;;;;;;;;;;;;;;14.52;72.60;99962.00;5032080;28;19924;-74
2021/10/19 00:49:06;;;;;;;;;;;;;;;14.49;72.67;99965.72;5031952;28;19924;-75
2021/10/19 00:51:31;;;;;;;;;;;;;;;14.49;72.74;99970.16;5013378;28;19917;-74
2021/10/19 00:53:57;;;;;;;;;;;;;;;14.51;72.84;99969.13;5031080;28;19924;-73
2021/10/19 00:56:22;;;;;;;;;;;;;;;14.48;73.16;99971.13;5029684;28;20023;-74
2021/10/19 00:58:48;;;;;;;;;;;;;;;14.50;73.50;99974.53;5039032;28;19976;-75
2021/10/19 01:01:14;;;;;;;;;;;;;;;14.49;73.55;99965.72;4991069;28;19928;-74
2021/10/19 01:03:39;;;;;;;;;;;;;;;14.47;73.75;99967.63;5006660;28;19932;-74
2021/10/19 01:06:05;;;;;;;;;;;;;;;14.46;73.77;99957.09;5023686;28;19927;-74
2021/10/19 01:08:31;;;;;;;;;;;;;;;14.48;73.81;99964.00;5005290;28;20396;-74
2021/10/19 01:10:56;;;;;;;;;;;;;;;14.51;73.69;99965.63;5022973;28;19929;-73
2021/10/19 01:13:22;;;;;;;;;;;;;;;14.51;74.08;99962.97;5022148;28;20576;-73
2021/10/19 01:15:48;;;;;;;;;;;;;;;14.44;74.75;99964.28;5025593;28;19928;-73
2021/10/19 01:18:15;;;;;;;;;;;;;;;14.40;75.03;99961.00;5012271;28;19948;-73
2021/10/19 01:20:40;;;;;;;;;;;;;;;14.38;75.30;99963.72;5012263;28;20602;-73
2021/10/19 01:23:05;;;;;;;;;;;;;;;14.35;76.06;99973.69;5024942;28;20011;-74
2021/10/19 01:25:32;;;;;;;;;;;;;;;14.29;76.59;99972.25;5029775;28;19928;-73
2021/10/19 01:28:04;;;;;;;;;;;;;;;14.24;77.05;99969.03;5026019;28;20292;-73
2021/10/19 01:30:30;;;;;;;;;;;;;;;14.18;77.72;99972.06;5019132;28;19925;-73
2021/10/19 01:32:56;;;;;;;;;;;;;;;14.18;77.93;99967.63;5011403;28;19917;-73
2021/10/19 01:35:34;;;;;;;;;;;;;;;14.13;78.17;99953.78;5029457;28;19917;-74
2021/10/19 01:38:00;;;;;;;;;;;;;;;14.13;78.68;99958.25;5029161;28;19924;-74
2021/10/19 01:40:28;;;;;;;;;;;;;;;14.06;79.10;99951.63;5029522;28;19917;-73
2021/10/19 01:42:53;;;;;;;;;;;;;;;14.02;78.90;99956.22;5022829;28;19947;-74
2021/10/19 01:45:19;;;;;;;;;;;;;;;14.01;79.39;99940.44;5024068;28;19975;-74
2021/10/19 01:47:45;;;;;;;;;;;;;;;13.98;79.12;99933.53;5029470;28;19917;-74
2021/10/19 01:50:14;;;;;;;;;;;;;;;13.93;79.50;99923.22;5026649;28;19918;-73
2021/10/19 01:52:40;;;;;;;;;;;;;;;13.94;79.66;99918.75;5029469;28;19928;-74
2021/10/19 01:55:07;;;;;;;;;;;;;;;13.95;80.11;99921.31;5012114;28;20696;-75
2021/10/19 01:57:32;;;;;;;;;;;;;;;13.99;79.66;99923.78;5029132;28;19921;-73
2021/10/19 01:59:57;;;;;;;;;;;;;;;13.98;80.01;99917.63;5028943;28;19928;-74
2021/10/19 02:02:22;;;;;;;;;;;;;;;13.95;79.83;99915.13;5027865;28;19967;-74
2021/10/19 02:04:48;;;;;;;;;;;;;;;13.93;79.85;99912.59;5028993;28;19925;-75
2021/10/19 02:07:13;;;;;;;;;;;;;;;13.94;80.50;99910.78;5028516;28;19921;-74
2021/10/19 02:09:38;;;;;;;;;;;;;;;13.93;80.34;99904.66;5012192;28;19917;-73
2021/10/19 02:12:03;;;;;;;;;;;;;;;13.98;80.42;99903.50;5028228;28;19921;-73
2021/10/19 02:14:29;;;;;;;;;;;;;;;14.01;79.77;99890.06;5011357;28;19921;-75
2021/10/19 02:16:54;;;;;;;;;;;;;;;13.99;79.82;99891.97;5029115;28;19917;-75
2021/10/19 02:19:22;;;;;;;;;;;;;;;13.98;80.04;99887.59;5011408;28;19948;-72
2021/10/19 02:21:47;;;;;;;;;;;;;;;13.98;79.82;99882.28;5028275;28;19956;-74
2021/10/19 02:24:13;;;;;;;;;;;;;;;14.00;79.69;99868.00;5029043;28;19956;-74
2021/10/19 02:26:38;;;;;;;;;;;;;;;14.03;80.02;99867.81;5029539;28;20444;-73
2021/10/19 02:29:03;;;;;;;;;;;;;;;14.04;79.92;99868.69;5028767;28;20377;-74
2021/10/19 02:31:28;;;;;;;;;;;;;;;14.04;79.63;99858.06;5029228;28;19925;-74
2021/10/19 02:33:53;;;;;;;;;;;;;;;14.03;79.86;99853.69;5030460;28;19959;-72
2021/10/19 02:36:21;;;;;;;;;;;;;;;14.03;79.42;99845.75;5029630;28;20000;-73
2021/10/19 02:38:46;;;;;;;;;;;;;;;14.03;79.50;99849.28;5011811;28;19921;-73
2021/10/19 02:41:12;;;;;;;;;;;;;;;14.03;79.93;99843.09;5028974;28;19917;-73
2021/10/19 02:43:37;;;;;;;;;;;;;;;14.04;79.63;99842.16;5029192;28;20377;-73
2021/10/19 02:46:02;;;;;;;;;;;;;;;14.05;79.86;99833.25;5028973;28;19940;-72
2021/10/19 02:48:27;;;;;;;;;;;;;;;14.04;79.98;99831.56;5029874;28;20285;-75
2021/10/19 02:50:52;;;;;;;;;;;;;;;14.07;80.18;99826.06;5028120;28;19940;-73
2021/10/19 02:53:18;;;;;;;;;;;;;;;14.07;79.78;99826.91;5028342;28;19921;-73
2021/10/19 02:55:43;;;;;;;;;;;;;;;14.07;79.54;99823.41;5028836;28;19924;-73
2021/10/19 02:58:08;;;;;;;;;;;;;;;14.09;79.94;99813.56;5029350;28;19924;-73
2021/10/19 03:00:33;;;;;;;;;;;;;;;14.10;80.02;99813.47;5027806;28;19921;-73
2021/10/19 03:02:59;;;;;;;;;;;;;;;14.14;79.73;99808.81;5028002;28;19921;-73
2021/10/19 03:05:24;;;;;;;;;;;;;;;14.16;79.85;99805.13;5028161;28;19925;-73
2021/10/19 03:07:49;;;;;;;;;;;;;;;14.18;79.53;99799.72;5028895;28;19917;-74
2021/10/19 03:10:15;;;;;;;;;;;;;;;14.19;79.92;99809.38;5027379;28;19922;-73
2021/10/19 03:12:40;;;;;;;;;;;;;;;14.17;79.86;99806.81;5011246;28;20347;-73
2021/10/19 03:15:05;;;;;;;;;;;;;;;14.19;79.87;99798.78;5032354;28;20308;-74
2021/10/19 03:17:31;;;;;;;;;;;;;;;14.18;79.77;99808.53;5014222;28;20342;-74
2021/10/19 03:19:56;;;;;;;;;;;;;;;14.16;80.07;99804.28;5032063;28;19921;-75
2021/10/19 03:22:21;;;;;;;;;;;;;;;14.20;80.07;99816.41;5031454;28;19921;-74
2021/10/19 03:24:46;;;;;;;;;;;;;;;14.18;80.37;99808.53;5027520;28;19930;-74
2021/10/19 03:27:11;;;;;;;;;;;;;;;14.18;80.09;99820.94;5012354;28;19925;-73
2021/10/19 03:29:37;;;;;;;;;;;;;;;14.13;80.54;99804.47;5012304;28;20365;-73
2021/10/19 03:32:02;;;;;;;;;;;;;;;14.12;80.68;99806.25;5011501;28;19964;-74
2021/10/19 03:34:28;;;;;;;;;;;;;;;14.15;80.91;99816.69;4994847;28;19926;-73
2021/10/19 03:36:53;;;;;;;;;;;;;;;14.16;80.89;99815.72;5013248;28;19917;-73
2021/10/19 03:39:18;;;;;;;;;;;;;;;14.16;80.46;99814.88;5012539;28;19924;-74
2021/10/19 03:41:44;;;;;;;;;;;;;;;14.16;80.96;99817.53;5011320;28;19921;-73
2021/10/19 03:44:09;;;;;;;;;;;;;;;14.12;80.80;99813.38;5012458;28;20369;-74
2021/10/19 03:46:34;;;;;;;;;;;;;;;14.12;81.32;99826.63;5012102;28;20274;-74
2021/10/19 03:48:59;;;;;;;;;;;;;;;14.12;81.16;99834.56;4994512;28;19949;-73
2021/10/19 03:51:25;;;;;;;;;;;;;;;14.10;81.69;99825.84;4993474;28;19975;-75
2021/10/19 03:53:50;;;;;;;;;;;;;;;14.10;81.64;99820.56;4994398;28;20290;-73
2021/10/19 03:56:15;;;;;;;;;;;;;;;14.07;81.54;99821.59;5012119;28;19917;-75
2021/10/19 03:58:40;;;;;;;;;;;;;;;14.07;82.01;99821.59;5012338;28;20296;-72
2021/10/19 04:01:06;;;;;;;;;;;;;;;14.07;81.92;99818.09;5000944;28;19917;-73
2021/10/19 04:03:31;;;;;;;;;;;;;;;14.06;81.65;99821.72;5031552;28;20353;-73
2021/10/19 04:05:56;;;;;;;;;;;;;;;14.05;81.68;99817.34;5031443;28;19932;-73
2021/10/19 04:08:21;;;;;;;;;;;;;;;14.05;81.73;99818.19;5031774;28;19917;-73
2021/10/19 04:10:47;;;;;;;;;;;;;;;14.06;81.76;99821.72;5030582;28;19960;-72
2021/10/19 04:13:12;;;;;;;;;;;;;;;14.06;81.78;99814.63;5014194;28;19955;-75
2021/10/19 04:15:37;;;;;;;;;;;;;;;14.09;81.65;99814.41;5030801;28;19917;-74
2021/10/19 04:18:03;;;;;;;;;;;;;;;14.10;81.62;99812.59;5030943;28;20004;-73
2021/10/19 04:20:28;;;;;;;;;;;;;;;14.10;82.11;99812.59;5030201;28;20055;-72
2021/10/19 04:22:53;;;;;;;;;;;;;;;14.09;82.23;99819.72;5031077;28;19913;-73
2021/10/19 04:25:18;;;;;;;;;;;;;;;14.06;82.62;99814.63;5012850;28;20307;-73
2021/10/19 04:27:44;;;;;;;;;;;;;;;14.01;82.86;99816.69;5030755;28;19917;-73
2021/10/19 04:30:09;;;;;;;;;;;;;;;14.01;83.42;99813.22;5030671;28;19983;-73
2021/10/19 04:32:34;;;;;;;;;;;;;;;13.99;83.59;99817.75;5030324;28;20361;-74
2021/10/19 04:34:59;;;;;;;;;;;;;;;14.00;83.89;99814.97;5031134;28;19924;-74
2021/10/19 04:37:25;;;;;;;;;;;;;;;13.96;83.78;99817.00;5032367;28;20489;-74
2021/10/19 04:39:50;;;;;;;;;;;;;;;13.94;83.90;99818.88;5030850;28;20312;-75
2021/10/19 04:42:15;;;;;;;;;;;;;;;13.95;84.04;99817.94;5029765;28;20010;-74
2021/10/19 04:44:40;;;;;;;;;;;;;;;13.93;84.37;99816.31;5031138;28;19971;-74
2021/10/19 04:47:06;;;;;;;;;;;;;;;13.94;84.48;99812.72;5012581;28;19921;-73
2021/10/19 04:49:32;;;;;;;;;;;;;;;13.91;84.50;99811.13;5030517;28;19944;-73
2021/10/19 04:51:58;;;;;;;;;;;;;;;13.92;84.91;99819.91;5012408;28;20387;-75
2021/10/19 04:54:23;;;;;;;;;;;;;;;13.92;85.08;99811.97;5030752;28;19917;-75
2021/10/19 04:56:48;;;;;;;;;;;;;;;13.92;85.12;99811.97;5030601;28;19921;-74
2021/10/19 04:59:13;;;;;;;;;;;;;;;13.90;85.23;99808.56;5012523;28;19924;-74
2021/10/19 05:01:51;;;;;;;;;;;;;;;13.88;85.03;99810.44;5013933;28;19917;-74
2021/10/19 05:04:16;;;;;;;;;;;;;;;13.90;85.50;99816.50;5030426;28;19928;-75
2021/10/19 05:06:42;;;;;;;;;;;;;;;13.91;85.48;99819.06;5030971;28;19921;-72
2021/10/19 05:09:07;;;;;;;;;;;;;;;13.93;85.58;99818.97;5030248;28;20007;-74
2021/10/19 05:11:35;;;;;;;;;;;;;;;13.94;85.58;99810.09;5029465;28;23950;-73
2021/10/19 05:14:00;;;;;;;;;;;;;;;13.96;85.89;99818.78;5012831;28;19917;-74
2021/10/19 05:16:26;;;;;;;;;;;;;;;13.98;85.63;99816.03;5030107;28;20403;-74
2021/10/19 05:18:51;;;;;;;;;;;;;;;13.98;86.30;99818.69;5012680;28;19996;-74
2021/10/19 05:21:16;;;;;;;;;;;;;;;13.98;86.08;99808.06;4995768;28;19917;-75
2021/10/19 05:23:41;;;;;;;;;;;;;;;13.96;86.07;99808.19;5030627;28;20000;-74
2021/10/19 05:26:09;;;;;;;;;;;;;;;14.00;85.82;99808.84;5029958;28;19957;-73
2021/10/19 05:28:41;;;;;;;;;;;;;;;14.02;85.88;99812.25;5029583;28;19940;-73
2021/10/19 05:31:06;;;;;;;;;;;;;;;14.05;86.04;99814.69;4984873;28;20005;-75
2021/10/19 05:33:32;;;;;;;;;;;;;;;14.03;85.78;99809.50;5010264;28;20076;-75
2021/10/19 05:35:57;;;;;;;;;;;;;;;14.05;85.74;99817.34;5010139;28;20079;-75
2021/10/19 05:38:22;;;;;;;;;;;;;;;14.09;85.83;99814.41;5009647;28;19917;-75
2021/10/19 05:40:47;;;;;;;;;;;;;;;14.12;85.56;99800.09;5009236;28;19922;-74
2021/10/19 05:43:13;;;;;;;;;;;;;;;14.13;85.79;99801.81;5010839;28;19917;-74
2021/10/19 05:45:38;;;;;;;;;;;;;;;14.12;85.69;99803.59;5010179;28;19925;-73
2021/10/19 05:48:03;;;;;;;;;;;;;;;14.15;85.55;99803.44;5009867;28;19926;-73
2021/10/19 05:50:29;;;;;;;;;;;;;;;14.20;85.58;99812.88;5016761;28;19918;-74
2021/10/19 05:52:54;;;;;;;;;;;;;;;14.18;85.57;99811.19;5009581;28;20000;-73
2021/10/19 05:55:19;;;;;;;;;;;;;;;14.20;85.75;99808.44;5036433;28;19916;-74
2021/10/19 05:57:44;;;;;;;;;;;;;;;14.21;86.17;99804.84;5033189;28;19947;-73
2021/10/19 06:00:10;;;;;;;;;;;;;;;14.22;86.10;99808.31;5035153;28;19921;-74
2021/10/19 06:02:35;;;;;;;;;;;;;;;14.25;86.22;99813.44;5039096;28;19928;-73
2021/10/19 06:05:00;;;;;;;;;;;;;;;14.26;86.15;99810.69;5040369;28;20308;-75
2021/10/19 06:07:26;;;;;;;;;;;;;;;14.28;86.55;99805.31;5036126;28;20264;-72
2021/10/19 06:09:51;;;;;;;;;;;;;;;14.28;86.63;99795.53;5035155;28;20384;-74
2021/10/19 06:12:16;;;;;;;;;;;;;;;14.31;86.57;99797.97;5039141;28;19944;-71
2021/10/19 06:14:42;;;;;;;;;;;;;;;14.34;86.27;99797.78;5033888;28;20377;-75
2021/10/19 06:17:07;;;;;;;;;;;;;;;14.31;86.41;99805.94;5030658;28;19924;-74
2021/10/19 06:19:32;;;;;;;;;;;;;;;14.34;86.82;99799.59;5030754;28;19917;-73
2021/10/19 06:21:57;;;;;;;;;;;;;;;14.32;86.92;99796.16;5029898;28;20381;-73
2021/10/19 06:24:22;;;;;;;;;;;;;;;14.34;86.89;99802.22;5030869;28;19921;-74
2021/10/19 06:26:48;;;;;;;;;;;;;;;14.39;87.10;99800.13;5029711;28;19921;-75
2021/10/19 06:29:14;;;;;;;;;;;;;;;14.44;86.63;99794.53;5029741;28;19917;-74
2021/10/19 06:31:41;;;;;;;;;;;;;;;14.48;86.62;99791.59;5028020;28;19932;-74
2021/10/19 06:34:06;;;;;;;;;;;;;;;14.51;86.44;99802.00;5009579;28;20008;-72
2021/10/19 06:36:31;;;;;;;;;;;;;;;14.56;86.31;99807.88;5028236;28;20408;-74
2021/10/19 06:38:57;;;;;;;;;;;;;;;14.61;86.20;99807.56;5028311;28;20800;-73
2021/10/19 06:41:22;;;;;;;;;;;;;;;14.64;85.91;99801.22;5023907;28;20384;-72
2021/10/19 06:43:48;;;;;;;;;;;;;;;14.68;85.66;99797.41;5028225;28;20454;-74
2021/10/19 06:46:13;;;;;;;;;;;;;;;14.73;85.78;99801.47;5029217;28;19953;-73
2021/10/19 06:48:38;;;;;;;;;;;;;;;14.78;85.67;99799.34;5012329;28;20356;-73
2021/10/19 06:51:05;;;;;;;;;;;;;;;14.80;85.41;99794.78;5030118;28;20384;-76
2021/10/19 06:53:31;;;;;;;;;;;;;;;14.84;85.41;99798.13;5028607;28;20300;-72
2021/10/19 06:55:56;;;;;;;;;;;;;;;14.84;85.46;99808.72;5009994;28;19921;-69
2021/10/19 06:58:21;;;;;;;;;;;;;;;14.89;85.40;99811.94;5012250;28;20568;-69
2021/10/19 07:00:46;;;;;;;;;;;;;;;14.93;85.25;99808.09;5022928;28;19923;-70
2021/10/19 07:03:12;;;;;;;;;;;;;;;14.96;85.13;99807.03;5023335;28;19925;-70
2021/10/19 07:05:37;;;;;;;;;;;;;;;14.97;85.42;99801.63;5020983;28;19925;-68
2021/10/19 07:08:05;;;;;;;;;;;;;;;14.99;85.28;99801.53;5008964;28;20316;-69
2021/10/19 07:10:30;;;;;;;;;;;;;;;15.01;85.50;99807.56;5025890;28;19925;-68
2021/10/19 07:12:56;;;;;;;;;;;;;;;15.03;85.87;99808.31;5026953;28;20455;-69
2021/10/19 07:15:21;;;;;;;;;;;;;;;15.05;85.81;99814.38;4990769;28;19921;-71
2021/10/19 07:17:47;;;;;;;;;;;;;;;15.07;86.08;99811.66;5006734;28;20502;-70
2021/10/19 07:20:12;;;;;;;;;;;;;;;15.07;86.41;99806.34;5006818;28;19922;-72
2021/10/19 07:22:39;;;;;;;;;;;;;;;15.10;86.46;99809.63;5006792;28;19929;-71
2021/10/19 07:25:05;;;;;;;;;;;;;;;15.09;86.61;99817.69;5007274;28;19925;-71
2021/10/19 07:27:31;;;;;;;;;;;;;;;15.10;86.70;99814.94;5006598;28;19922;-70
2021/10/19 07:29:56;;;;;;;;;;;;;;;15.09;86.89;99807.06;5007027;28;20751;-70
2021/10/19 07:32:21;;;;;;;;;;;;;;;15.13;86.92;99811.22;5005899;28;20395;-70
2021/10/19 07:34:47;;;;;;;;;;;;;;;15.14;86.75;99810.28;5019137;28;19921;-71
2021/10/19 07:37:12;;;;;;;;;;;;;;;15.14;87.19;99818.25;5018742;28;19928;-71
2021/10/19 07:39:37;;;;;;;;;;;;;;;15.16;87.12;99818.97;5004988;28;20733;-71
2021/10/19 07:42:03;;;;;;;;;;;;;;;15.21;86.70;99822.16;5025328;28;19921;-72
2021/10/19 07:44:28;;;;;;;;;;;;;;;15.23;86.71;99813.16;5025902;28;20540;-69
2021/10/19 07:46:53;;;;;;;;;;;;;;;15.28;86.43;99817.28;5025453;28;19974;-69
2021/10/19 07:49:19;;;;;;;;;;;;;;;15.31;86.57;99825.03;5025234;28;19998;-70
2021/10/19 07:51:44;;;;;;;;;;;;;;;15.34;86.40;99822.19;5017132;28;20399;-71
2021/10/19 07:54:09;;;;;;;;;;;;;;;15.37;86.31;99825.47;5025777;28;19928;-71
2021/10/19 07:56:35;;;;;;;;;;;;;;;15.39;86.31;99828.88;5024765;28;19921;-71
2021/10/19 07:59:05;;;;;;;;;;;;;;;15.42;86.15;99830.47;5026636;28;19988;-70
2021/10/19 08:01:30;;;;;;;;;;;;;;;15.42;86.15;99835.78;5012662;28;19928;-69
2021/10/19 08:03:55;;;;;;;;;;;;;;;15.41;86.21;99832.28;5025655;28;20214;-70
2021/10/19 08:06:20;;;;;;;;;;;;;;;15.43;86.05;99826.84;5022858;28;19928;-70
2021/10/19 08:08:45;;;;;;;;;;;;;;;15.48;86.20;99837.16;5006161;28;19921;-71
2021/10/19 08:11:11;;;;;;;;;;;;;;;15.50;86.11;99830.78;5004982;28;19984;-71
2021/10/19 08:13:36;;;;;;;;;;;;;;;15.56;86.00;99841.00;5006271;28;19975;-70
2021/10/19 08:16:02;;;;;;;;;;;;;;;15.59;85.92;99834.63;5005077;28;20686;-71
2021/10/19 08:18:27;;;;;;;;;;;;;;;15.61;86.12;99838.88;5007143;28;19922;-71
2021/10/19 08:20:52;;;;;;;;;;;;;;;15.59;86.08;99837.28;5025614;28;20011;-73
2021/10/19 08:23:20;;;;;;;;;;;;;;;15.61;86.06;99832.72;5028841;28;19921;-74
2021/10/19 08:25:45;;;;;;;;;;;;;;;15.63;85.95;99834.31;5029463;28;19932;-73
2021/10/19 08:28:17;;;;;;;;;;;;;;;15.65;86.19;99837.72;5029721;28;19921;-74
2021/10/19 08:30:42;;;;;;;;;;;;;;;15.67;85.90;99838.44;5026265;28;19921;-74
2021/10/19 08:33:08;;;;;;;;;;;;;;;15.70;85.79;99833.91;5006059;28;20147;-74
2021/10/19 08:35:33;;;;;;;;;;;;;;;15.72;85.89;99835.50;5023927;28;20484;-74
2021/10/19 08:37:58;;;;;;;;;;;;;;;15.73;85.53;99841.69;5007179;28;20426;-73
2021/10/19 08:40:23;;;;;;;;;;;;;;;15.76;85.77;99844.97;5024665;28;20353;-73
2021/10/19 08:42:51;;;;;;;;;;;;;;;15.80;85.41;99840.28;5024974;28;19925;-74
2021/10/19 08:45:17;;;;;;;;;;;;;;;15.79;85.84;99838.59;5023733;28;20372;-74
2021/10/19 08:47:43;;;;;;;;;;;;;;;15.79;85.85;99836.78;5023570;28;19928;-72
2021/10/19 08:50:10;;;;;;;;;;;;;;;15.78;85.85;99840.41;5006303;28;20373;-73
2021/10/19 08:52:35;;;;;;;;;;;;;;;15.81;85.49;99839.34;5023585;28;19928;-75
2021/10/19 08:55:00;;;;;;;;;;;;;;;15.82;85.63;99841.88;5004722;28;19921;-76
2021/10/19 08:57:26;;;;;;;;;;;;;;;15.82;85.92;99839.22;5005253;28;20008;-75
2021/10/19 08:59:54;;;;;;;;;;;;;;;15.85;86.17;99840.81;5002393;28;19921;-73
2021/10/19 09:02:33;;;;;;;;;;;;;;;15.83;86.01;99837.44;5003474;28;19922;-74
2021/10/19 09:04:58;;;;;;;;;;;;;;;15.79;86.79;99835.94;5004543;28;19925;-74
2021/10/19 09:07:26;;;;;;;;;;;;;;;15.77;86.51;99832.53;4987495;28;19976;-74
2021/10/19 09:09:52;;;;;;;;;;;;;;;15.78;86.29;99827.13;5004832;28;19928;-72
2021/10/19 09:12:22;;;;;;;;;;;;;;;15.80;86.60;99841.16;5003097;28;20294;-74
2021/10/19 09:14:47;;;;;;;;;;;;;;;15.81;86.98;99831.38;4986686;28;19921;-74
2021/10/19 09:17:13;;;;;;;;;;;;;;;15.86;86.81;99834.53;5004984;28;19921;-74
2021/10/19 09:19:39;;;;;;;;;;;;;;;15.87;86.67;99834.47;5005217;28;19993;-75
2021/10/19 09:22:05;;;;;;;;;;;;;;;15.89;86.05;99834.31;5003925;28;20275;-75
2021/10/19 09:24:35;;;;;;;;;;;;;;;15.91;86.05;99837.72;5005412;28;19925;-74
2021/10/19 09:27:02;;;;;;;;;;;;;;;15.96;85.93;99837.41;5004124;28;19940;-75
2021/10/19 09:29:29;;;;;;;;;;;;;;;16.01;85.62;99836.13;5003767;28;19922;-73
2021/10/19 09:31:56;;;;;;;;;;;;;;;16.08;85.21;99837.38;5004922;28;20384;-73
2021/10/19 09:34:21;;;;;;;;;;;;;;;16.10;84.88;99834.63;5003768;28;19971;-75
2021/10/19 09:36:48;;;;;;;;;;;;;;;16.15;85.03;99843.13;5004961;28;20013;-75
2021/10/19 09:39:14;;;;;;;;;;;;;;;16.16;84.58;99838.66;5004567;28;20472;-73
2021/10/19 09:41:43;;;;;;;;;;;;;;;16.19;84.49;99833.09;5005087;28;20020;-75
2021/10/19 09:44:09;;;;;;;;;;;;;;;16.22;84.47;99848.84;5004559;28;19937;-73
2021/10/19 09:46:34;;;;;;;;;;;;;;;16.25;84.40;99845.97;5004368;28;19921;-73
2021/10/19 09:49:00;;;;;;;;;;;;;;;16.28;83.81;99851.91;5003919;28;19928;-75
2021/10/19 09:51:25;;;;;;;;;;;;;;;16.31;83.87;99846.38;5006493;28;19921;-73
2021/10/19 09:53:52;;;;;;;;;;;;;;;16.36;83.64;99843.38;5023095;28;20297;-73
2021/10/19 09:56:18;;;;;;;;;;;;;;;16.43;83.74;99847.28;5024398;28;20329;-74
2021/10/19 09:58:43;;;;;;;;;;;;;;;16.51;83.55;99838.75;5024098;28;19977;-74
2021/10/19 10:01:10;;;;;;;;;;;;;;;16.59;83.44;99831.06;5020862;28;19921;-73
2021/10/19 10:03:36;;;;;;;;;;;;;;;16.64;82.73;99847.56;5023182;28;19925;-75
2021/10/19 10:06:01;;;;;;;;;;;;;;;16.71;82.79;99834.63;5023907;28;19990;-75
2021/10/19 10:08:27;;;;;;;;;;;;;;;16.75;82.58;99841.44;5023699;28;20015;-73
2021/10/19 10:10:53;;;;;;;;;;;;;;;16.80;82.33;99847.28;5004429;28;19929;-75
2021/10/19 10:13:18;;;;;;;;;;;;;;;16.84;82.23;99843.44;5004823;28;19928;-75
2021/10/19 10:15:43;;;;;;;;;;;;;;;16.81;82.24;99843.69;5005917;28;19921;-74
2021/10/19 10:18:10;;;;;;;;;;;;;;;16.79;82.22;99842.94;5005305;28;19921;-75
2021/10/19 10:20:37;;;;;;;;;;;;;;;16.81;82.17;99857.00;5022161;28;20003;-75
2021/10/19 10:23:19;;;;;;;;;;;;;;;16.80;82.11;99852.63;5002931;28;19917;-75
2021/10/19 10:25:46;;;;;;;;;;;;;;;16.81;82.53;99862.31;5024093;28;20404;-75
2021/10/19 10:28:13;;;;;;;;;;;;;;;16.90;82.27;99852.78;5000316;28;19928;-73
2021/10/19 10:30:38;;;;;;;;;;;;;;;17.09;81.70;99858.44;5004487;28;19925;-75
2021/10/19 10:33:05;;;;;;;;;;;;;;;17.38;81.19;99853.56;4996511;28;19928;-76
2021/10/19 10:35:30;;;;;;;;;;;;;;;17.51;80.16;99860.63;5024525;28;20545;-75
2021/10/19 10:37:56;;;;;;;;;;;;;;;17.50;80.28;99859.78;5023556;28;19925;-75
2021/10/19 10:40:36;;;;;;;;;;;;;;;17.72;79.41;99853.63;5013081;28;19968;-72
2021/10/19 10:43:21;;;;;;;;;;;;;;;17.80;78.90;99859.25;5018030;28;19921;-73
2021/10/19 10:45:48;;;;;;;;;;;;;;;17.97;78.41;99855.25;5001566;28;19933;-74
2021/10/19 10:48:14;;;;;;;;;;;;;;;18.05;78.04;99849.31;5021385;28;19921;-74
2021/10/19 10:50:40;;;;;;;;;;;;;;;18.19;77.45;99846.38;5004462;28;19921;-74
2021/10/19 10:53:09;;;;;;;;;;;;;;;18.09;77.43;99856.09;5022724;28;19944;-75
2021/10/19 10:55:39;;;;;;;;;;;;;;;18.12;77.35;99857.69;5022430;28;20404;-73
2021/10/19 10:58:05;;;;;;;;;;;;;;;18.15;78.47;99849.41;5006026;28;19921;-74
2021/10/19 11:00:30;;;;;;;;;;;;;;;18.17;78.68;99855.50;5002879;28;20443;-74
2021/10/19 11:03:08;;;;;;;;;;;;;;;18.13;78.39;99851.34;5003166;28;19999;-74
2021/10/19 11:05:35;;;;;;;;;;;;;;;18.12;77.74;99833.66;5003487;28;19925;-75
2021/10/19 11:08:00;;;;;;;;;;;;;;;18.19;77.94;99842.88;5003148;28;19956;-75
2021/10/19 11:10:25;;;;;;;;;;;;;;;18.30;76.80;99836.66;5003199;28;20734;-74
2021/10/19 11:12:58;;;;;;;;;;;;;;;18.34;76.82;99833.63;4993800;28;19922;-75
2021/10/19 11:15:23;;;;;;;;;;;;;;;18.23;77.22;99842.47;5022876;28;19921;-74
2021/10/19 11:17:50;;;;;;;;;;;;;;;18.23;76.95;99844.31;4989095;28;19956;-74
2021/10/19 11:20:19;;;;;;;;;;;;;;;18.31;76.69;99841.03;5021816;28;19917;-76
2021/10/19 11:22:44;;;;;;;;;;;;;;;18.36;76.80;99836.16;5022446;28;20438;-75
2021/10/19 11:25:10;;;;;;;;;;;;;;;18.36;77.18;99830.81;5023025;28;20017;-75
2021/10/19 11:27:36;;;;;;;;;;;;;;;18.38;77.00;99835.06;5022888;28;19921;-74
2021/10/19 11:30:02;;;;;;;;;;;;;;;18.39;76.59;99819.91;5022640;28;19921;-74
2021/10/19 11:32:27;;;;;;;;;;;;;;;18.48;76.37;99826.31;5022514;28;20295;-74
2021/10/19 11:34:55;;;;;;;;;;;;;;;18.55;76.12;99823.00;5017168;28;19921;-75
2021/10/19 11:37:20;;;;;;;;;;;;;;;18.61;76.36;99827.88;5009294;28;19922;-77
2021/10/19 11:39:46;;;;;;;;;;;;;;;18.59;76.01;99820.97;5006490;28;20032;-75
2021/10/19 11:42:11;;;;;;;;;;;;;;;18.56;76.19;99815.88;5019554;28;19921;-72
2021/10/19 11:44:36;;;;;;;;;;;;;;;18.50;75.83;99811.88;5008198;28;19925;-76
2021/10/19 11:47:02;;;;;;;;;;;;;;;18.49;76.02;99804.84;5008545;28;20277;-75
2021/10/19 11:49:39;;;;;;;;;;;;;;;18.49;75.93;99802.16;5025797;28;19988;-75
2021/10/19 11:52:04;;;;;;;;;;;;;;;18.52;75.83;99812.59;5025617;28;19971;-74
2021/10/19 11:54:30;;;;;;;;;;;;;;;18.46;76.14;99810.44;5029701;28;19917;-75
2021/10/19 11:56:57;;;;;;;;;;;;;;;18.45;76.33;99814.06;5031373;28;20347;-75
2021/10/19 11:59:22;;;;;;;;;;;;;;;18.45;76.85;99814.91;5031080;28;19971;-76
2021/10/19 12:01:49;;;;;;;;;;;;;;;18.38;76.79;99808.38;5029691;28;19941;-75
2021/10/19 12:04:15;;;;;;;;;;;;;;;18.30;76.95;99810.81;5031106;28;20347;-74
2021/10/19 12:06:42;;;;;;;;;;;;;;;18.26;77.24;99800.50;5012214;28;20011;-74
2021/10/19 12:09:18;;;;;;;;;;;;;;;18.27;77.18;99795.06;5031106;28;19960;-74
2021/10/19 12:11:53;;;;;;;;;;;;;;;18.28;76.79;99801.25;5029400;28;19925;-75
2021/10/19 12:14:27;;;;;;;;;;;;;;;18.25;77.12;99797.00;5031833;28;19951;-74
2021/10/19 12:16:53;;;;;;;;;;;;;;;18.30;77.12;99797.47;5030075;28;19917;-74
2021/10/19 12:19:18;;;;;;;;;;;;;;;18.33;76.79;99802.56;5012944;28;19924;-75
2021/10/19 12:21:48;;;;;;;;;;;;;;;18.29;76.83;99805.63;5012700;28;19917;-74
2021/10/19 12:24:13;;;;;;;;;;;;;;;18.29;76.83;99803.81;5030463;28;19967;-74
2021/10/19 12:26:42;;;;;;;;;;;;;;;18.30;76.86;99799.31;5030750;28;19957;-74
2021/10/19 12:29:08;;;;;;;;;;;;;;;18.25;77.12;99791.66;5030583;28;20345;-73
2021/10/19 12:31:33;;;;;;;;;;;;;;;18.27;77.18;99804.91;5012326;28;20364;-75
2021/10/19 12:34:02;;;;;;;;;;;;;;;18.30;76.94;99800.16;5030364;28;19917;-73
2021/10/19 12:36:34;;;;;;;;;;;;;;;18.31;77.07;99787.63;5013260;28;20016;-73
2021/10/19 12:39:00;;;;;;;;;;;;;;;18.29;76.94;99789.63;5030836;28;19925;-74
2021/10/19 12:41:27;;;;;;;;;;;;;;;18.29;77.04;99789.63;5030950;28;19999;-74